Fort Smith Airport
CYSM : now visible

Airfield :











YOU CAN JOIN US ON...

 
LOGIN :

Register | Disclaimer

   EN    FR    IT 

 









Legend :    VFR   Marginal VFR   IFR   Intensive IFR   Very Intensive IFR
Visi :
Ceiling :
>= 8 km
>= 3000ft
5 to 8 km
1000 to 3000 ft
1500m to 5 km
500 to 1000 ft
800 to 1500m
200 to 500 ft
< 800m
< 200 ft
Symbols :   Thunderstorms  Fog  Heavy snow  Heavy precipitations  Wind > 20 kt






- Airport Elevation : 671 ft
- IATA code : YSM


CYSM - Fort Smith

CURRENT METAR :
  • 061500Z 16004KT 15SM IC FEW190 M30/M34 A2999 RMK AC1 SLP186

EXPIRED METARs :
  • 061400Z 00000KT 15SM IC FEW065 FEW120 M30/M33 A3000 RMK SC1AC1 FROIN SLP189
  • 061300Z 18003KT 15SM IC FEW120 M29/M31 A3001 RMK AC2 FROIN SLP193

TAF TAF CYSM
Valid from the 06 at 12:00 until the 07 at 00:00 UTC


061138Z 0612/0624 VRB03KT P6SM FEW070 SCT180
FM062000 13004KT P6SM FEW015 FEW120 RMK NXT FCST BY 061800Z



MET'MAP, your aeronautical weather chart ! - Copyright ORBIFLY December 2007 - Disclaimer

ORBIFLY MET'MAP TEAM :

Programming & Development : Alexandra Zaïnal
Concept & original design : Baudouin d'Aumeries
Assistance for programming : Marc-Olivier Méhu
Technical & hardware support : Manuel Goepfert

Contact : metmap@orbifly.com




SOURCES & CREDITS :

   NOAA       Earth
Advisory